sensor_id;sensor_type;location;lat;lon;timestamp;P1;durP1;ratioP1;P2;durP2;ratioP2
19891;SDS011;10108;50.142;8.724;2023-02-21T00:01:56;21.10;;;9.70;;
19891;SDS011;10108;50.142;8.724;2023-02-21T00:04:41;21.17;;;9.27;;
19891;SDS011;10108;50.142;8.724;2023-02-21T00:07:26;15.95;;;9.30;;
19891;SDS011;10108;50.142;8.724;2023-02-21T00:10:12;19.77;;;9.50;;
19891;SDS011;10108;50.142;8.724;2023-02-21T00:12:58;16.27;;;8.75;;
19891;SDS011;10108;50.142;8.724;2023-02-21T00:15:43;17.00;;;9.27;;
19891;SDS011;10108;50.142;8.724;2023-02-21T00:18:32;17.17;;;9.38;;
19891;SDS011;10108;50.142;8.724;2023-02-21T00:21:18;18.50;;;9.32;;
19891;SDS011;10108;50.142;8.724;2023-02-21T00:24:02;14.95;;;8.98;;
19891;SDS011;10108;50.142;8.724;2023-02-21T00:26:48;18.25;;;9.50;;
19891;SDS011;10108;50.142;8.724;2023-02-21T00:29:33;17.83;;;9.57;;
19891;SDS011;10108;50.142;8.724;2023-02-21T00:32:17;21.80;;;10.10;;
19891;SDS011;10108;50.142;8.724;2023-02-21T00:35:02;15.85;;;8.60;;
19891;SDS011;10108;50.142;8.724;2023-02-21T00:37:48;21.05;;;9.60;;
19891;SDS011;10108;50.142;8.724;2023-02-21T00:40:36;19.20;;;10.02;;
19891;SDS011;10108;50.142;8.724;2023-02-21T00:43:31;22.20;;;9.75;;
19891;SDS011;10108;50.142;8.724;2023-02-21T00:46:17;20.25;;;10.13;;
19891;SDS011;10108;50.142;8.724;2023-02-21T00:49:03;18.58;;;9.60;;
19891;SDS011;10108;50.142;8.724;2023-02-21T00:51:48;18.35;;;9.70;;
19891;SDS011;10108;50.142;8.724;2023-02-21T00:54:34;18.00;;;9.90;;
19891;SDS011;10108;50.142;8.724;2023-02-21T00:57:19;16.13;;;9.65;;
19891;SDS011;10108;50.142;8.724;2023-02-21T01:00:05;23.17;;;13.82;;
19891;SDS011;10108;50.142;8.724;2023-02-21T01:02:53;27.08;;;13.20;;
19891;SDS011;10108;50.142;8.724;2023-02-21T01:05:37;21.33;;;11.35;;
19891;SDS011;10108;50.142;8.724;2023-02-21T01:08:22;27.35;;;14.02;;
19891;SDS011;10108;50.142;8.724;2023-02-21T01:11:07;26.25;;;14.77;;
19891;SDS011;10108;50.142;8.724;2023-02-21T01:14:03;19.80;;;10.52;;
19891;SDS011;10108;50.142;8.724;2023-02-21T01:16:48;20.10;;;9.50;;
19891;SDS011;10108;50.142;8.724;2023-02-21T01:19:33;19.95;;;9.98;;
19891;SDS011;10108;50.142;8.724;2023-02-21T01:22:18;23.58;;;10.60;;
19891;SDS011;10108;50.142;8.724;2023-02-21T01:25:03;21.23;;;12.13;;
19891;SDS011;10108;50.142;8.724;2023-02-21T01:27:49;24.23;;;12.52;;
19891;SDS011;10108;50.142;8.724;2023-02-21T01:30:34;19.85;;;12.52;;
19891;SDS011;10108;50.142;8.724;2023-02-21T01:33:19;25.02;;;15.07;;
19891;SDS011;10108;50.142;8.724;2023-02-21T01:36:04;23.08;;;13.27;;
19891;SDS011;10108;50.142;8.724;2023-02-21T01:38:49;24.90;;;12.65;;
19891;SDS011;10108;50.142;8.724;2023-02-21T01:41:35;21.45;;;11.73;;
19891;SDS011;10108;50.142;8.724;2023-02-21T01:47:19;23.52;;;11.82;;
19891;SDS011;10108;50.142;8.724;2023-02-21T01:53:02;22.33;;;10.82;;
19891;SDS011;10108;50.142;8.724;2023-02-21T01:55:52;22.40;;;10.98;;
19891;SDS011;10108;50.142;8.724;2023-02-21T01:58:39;16.83;;;9.52;;
19891;SDS011;10108;50.142;8.724;2023-02-21T02:01:28;21.92;;;10.57;;
19891;SDS011;10108;50.142;8.724;2023-02-21T02:04:25;20.13;;;9.90;;
19891;SDS011;10108;50.142;8.724;2023-02-21T02:07:09;20.60;;;9.45;;
19891;SDS011;10108;50.142;8.724;2023-02-21T02:09:54;19.90;;;9.60;;
19891;SDS011;10108;50.142;8.724;2023-02-21T02:15:52;17.60;;;9.00;;
19891;SDS011;10108;50.142;8.724;2023-02-21T02:18:42;17.98;;;9.07;;
19891;SDS011;10108;50.142;8.724;2023-02-21T02:21:35;19.05;;;9.38;;
19891;SDS011;10108;50.142;8.724;2023-02-21T02:27:05;15.23;;;8.77;;
19891;SDS011;10108;50.142;8.724;2023-02-21T02:38:33;16.90;;;9.43;;
19891;SDS011;10108;50.142;8.724;2023-02-21T02:43:51;23.00;;;11.80;;
19891;SDS011;10108;50.142;8.724;2023-02-21T02:46:23;17.73;;;9.15;;
19891;SDS011;10108;50.142;8.724;2023-02-21T02:48:57;15.98;;;8.32;;
19891;SDS011;10108;50.142;8.724;2023-02-21T02:51:31;17.50;;;8.60;;
19891;SDS011;10108;50.142;8.724;2023-02-21T02:54:01;15.82;;;7.90;;
19891;SDS011;10108;50.142;8.724;2023-02-21T02:56:27;15.20;;;8.45;;
19891;SDS011;10108;50.142;8.724;2023-02-21T02:58:57;14.77;;;8.63;;
19891;SDS011;10108;50.142;8.724;2023-02-21T03:04:39;16.25;;;8.90;;
19891;SDS011;10108;50.142;8.724;2023-02-21T03:07:46;20.50;;;10.85;;
19891;SDS011;10108;50.142;8.724;2023-02-21T03:10:17;16.10;;;9.32;;
19891;SDS011;10108;50.142;8.724;2023-02-21T03:12:56;16.02;;;8.85;;
19891;SDS011;10108;50.142;8.724;2023-02-21T03:18:00;14.77;;;8.60;;
19891;SDS011;10108;50.142;8.724;2023-02-21T03:20:35;16.63;;;7.93;;
19891;SDS011;10108;50.142;8.724;2023-02-21T03:23:03;14.52;;;7.90;;
19891;SDS011;10108;50.142;8.724;2023-02-21T03:25:30;16.38;;;9.15;;
19891;SDS011;10108;50.142;8.724;2023-02-21T03:28:00;14.60;;;8.50;;
19891;SDS011;10108;50.142;8.724;2023-02-21T03:30:34;16.00;;;8.88;;
19891;SDS011;10108;50.142;8.724;2023-02-21T03:33:01;16.73;;;9.02;;
19891;SDS011;10108;50.142;8.724;2023-02-21T03:35:27;15.55;;;9.05;;
19891;SDS011;10108;50.142;8.724;2023-02-21T03:37:56;18.98;;;10.30;;
19891;SDS011;10108;50.142;8.724;2023-02-21T03:40:25;17.60;;;10.02;;
19891;SDS011;10108;50.142;8.724;2023-02-21T03:42:56;18.23;;;10.27;;
19891;SDS011;10108;50.142;8.724;2023-02-21T03:45:24;19.25;;;9.77;;
19891;SDS011;10108;50.142;8.724;2023-02-21T03:48:16;21.17;;;10.25;;
19891;SDS011;10108;50.142;8.724;2023-02-21T03:50:43;16.38;;;9.48;;
19891;SDS011;10108;50.142;8.724;2023-02-21T03:53:10;16.73;;;9.15;;
19891;SDS011;10108;50.142;8.724;2023-02-21T03:55:40;18.67;;;9.80;;
19891;SDS011;10108;50.142;8.724;2023-02-21T03:58:12;19.30;;;9.63;;
19891;SDS011;10108;50.142;8.724;2023-02-21T04:00:39;18.83;;;9.45;;
19891;SDS011;10108;50.142;8.724;2023-02-21T04:03:05;17.55;;;9.27;;
19891;SDS011;10108;50.142;8.724;2023-02-21T04:05:37;20.02;;;10.20;;
19891;SDS011;10108;50.142;8.724;2023-02-21T04:08:04;16.02;;;9.98;;
19891;SDS011;10108;50.142;8.724;2023-02-21T04:10:31;18.58;;;10.20;;
19891;SDS011;10108;50.142;8.724;2023-02-21T04:12:58;16.15;;;9.70;;
19891;SDS011;10108;50.142;8.724;2023-02-21T04:15:24;16.50;;;9.70;;
19891;SDS011;10108;50.142;8.724;2023-02-21T04:17:50;16.60;;;9.98;;
19891;SDS011;10108;50.142;8.724;2023-02-21T04:20:17;17.45;;;9.68;;
19891;SDS011;10108;50.142;8.724;2023-02-21T04:22:53;18.48;;;9.10;;
19891;SDS011;10108;50.142;8.724;2023-02-21T04:25:19;18.38;;;8.60;;
19891;SDS011;10108;50.142;8.724;2023-02-21T04:27:49;16.30;;;9.30;;
19891;SDS011;10108;50.142;8.724;2023-02-21T04:30:16;16.42;;;9.57;;
19891;SDS011;10108;50.142;8.724;2023-02-21T04:32:43;19.75;;;9.73;;
19891;SDS011;10108;50.142;8.724;2023-02-21T04:35:12;18.67;;;9.35;;
19891;SDS011;10108;50.142;8.724;2023-02-21T04:37:40;17.80;;;9.68;;
19891;SDS011;10108;50.142;8.724;2023-02-21T04:40:07;18.60;;;9.65;;
19891;SDS011;10108;50.142;8.724;2023-02-21T04:42:34;17.60;;;9.20;;
19891;SDS011;10108;50.142;8.724;2023-02-21T04:45:01;16.33;;;8.93;;
19891;SDS011;10108;50.142;8.724;2023-02-21T04:47:28;19.50;;;9.93;;
19891;SDS011;10108;50.142;8.724;2023-02-21T04:49:54;20.27;;;10.13;;
19891;SDS011;10108;50.142;8.724;2023-02-21T04:52:20;21.15;;;9.65;;
19891;SDS011;10108;50.142;8.724;2023-02-21T04:54:47;19.95;;;9.88;;
19891;SDS011;10108;50.142;8.724;2023-02-21T04:57:13;17.20;;;9.30;;
19891;SDS011;10108;50.142;8.724;2023-02-21T04:59:40;18.50;;;9.98;;
19891;SDS011;10108;50.142;8.724;2023-02-21T05:02:07;19.00;;;9.40;;
19891;SDS011;10108;50.142;8.724;2023-02-21T05:04:34;16.40;;;9.60;;
19891;SDS011;10108;50.142;8.724;2023-02-21T05:07:01;18.48;;;9.93;;
19891;SDS011;10108;50.142;8.724;2023-02-21T05:09:28;15.77;;;9.95;;
19891;SDS011;10108;50.142;8.724;2023-02-21T05:11:54;22.67;;;10.23;;
19891;SDS011;10108;50.142;8.724;2023-02-21T05:14:20;22.30;;;10.05;;
19891;SDS011;10108;50.142;8.724;2023-02-21T05:16:47;18.73;;;9.57;;
19891;SDS011;10108;50.142;8.724;2023-02-21T05:19:17;17.17;;;10.00;;
19891;SDS011;10108;50.142;8.724;2023-02-21T05:21:56;16.70;;;9.57;;
19891;SDS011;10108;50.142;8.724;2023-02-21T05:24:24;16.65;;;9.18;;
19891;SDS011;10108;50.142;8.724;2023-02-21T05:26:51;16.00;;;10.10;;
19891;SDS011;10108;50.142;8.724;2023-02-21T05:29:18;18.45;;;10.13;;
19891;SDS011;10108;50.142;8.724;2023-02-21T05:31:45;19.30;;;10.57;;
19891;SDS011;10108;50.142;8.724;2023-02-21T05:34:11;15.07;;;10.02;;
19891;SDS011;10108;50.142;8.724;2023-02-21T05:36:38;15.63;;;9.50;;
19891;SDS011;10108;50.142;8.724;2023-02-21T05:39:05;18.08;;;10.50;;
19891;SDS011;10108;50.142;8.724;2023-02-21T05:41:32;19.67;;;10.35;;
19891;SDS011;10108;50.142;8.724;2023-02-21T05:44:00;18.13;;;9.88;;
19891;SDS011;10108;50.142;8.724;2023-02-21T05:48:54;21.08;;;10.43;;
19891;SDS011;10108;50.142;8.724;2023-02-21T05:51:21;15.30;;;9.80;;
19891;SDS011;10108;50.142;8.724;2023-02-21T05:53:47;17.23;;;9.75;;
19891;SDS011;10108;50.142;8.724;2023-02-21T05:56:15;14.95;;;9.45;;
19891;SDS011;10108;50.142;8.724;2023-02-21T05:58:41;21.75;;;10.20;;
19891;SDS011;10108;50.142;8.724;2023-02-21T06:01:08;17.65;;;9.90;;
19891;SDS011;10108;50.142;8.724;2023-02-21T06:03:34;15.32;;;9.25;;
19891;SDS011;10108;50.142;8.724;2023-02-21T06:06:00;17.35;;;9.63;;
19891;SDS011;10108;50.142;8.724;2023-02-21T06:08:27;20.05;;;9.70;;
19891;SDS011;10108;50.142;8.724;2023-02-21T06:10:53;18.27;;;10.07;;
19891;SDS011;10108;50.142;8.724;2023-02-21T06:13:19;18.27;;;9.73;;
19891;SDS011;10108;50.142;8.724;2023-02-21T06:15:45;14.32;;;9.45;;
19891;SDS011;10108;50.142;8.724;2023-02-21T06:18:12;19.45;;;10.20;;
19891;SDS011;10108;50.142;8.724;2023-02-21T06:20:39;16.70;;;9.88;;
19891;SDS011;10108;50.142;8.724;2023-02-21T06:23:05;18.75;;;9.85;;
19891;SDS011;10108;50.142;8.724;2023-02-21T06:25:32;19.25;;;9.77;;
19891;SDS011;10108;50.142;8.724;2023-02-21T06:27:58;17.08;;;10.15;;
19891;SDS011;10108;50.142;8.724;2023-02-21T06:30:24;14.90;;;9.60;;
19891;SDS011;10108;50.142;8.724;2023-02-21T06:32:50;18.35;;;10.35;;
19891;SDS011;10108;50.142;8.724;2023-02-21T06:35:16;17.70;;;10.07;;
19891;SDS011;10108;50.142;8.724;2023-02-21T06:37:43;16.58;;;9.82;;
19891;SDS011;10108;50.142;8.724;2023-02-21T06:40:09;18.92;;;11.10;;
19891;SDS011;10108;50.142;8.724;2023-02-21T06:42:35;15.68;;;9.98;;
19891;SDS011;10108;50.142;8.724;2023-02-21T06:45:01;16.05;;;10.30;;
19891;SDS011;10108;50.142;8.724;2023-02-21T06:47:28;18.75;;;10.85;;
19891;SDS011;10108;50.142;8.724;2023-02-21T06:49:54;20.92;;;10.40;;
19891;SDS011;10108;50.142;8.724;2023-02-21T06:52:20;17.00;;;10.02;;
19891;SDS011;10108;50.142;8.724;2023-02-21T06:54:48;21.80;;;10.38;;
19891;SDS011;10108;50.142;8.724;2023-02-21T06:57:15;20.52;;;10.30;;
19891;SDS011;10108;50.142;8.724;2023-02-21T06:59:41;18.40;;;10.13;;
19891;SDS011;10108;50.142;8.724;2023-02-21T07:02:09;21.67;;;10.80;;
19891;SDS011;10108;50.142;8.724;2023-02-21T07:04:43;20.75;;;11.02;;
19891;SDS011;10108;50.142;8.724;2023-02-21T07:07:13;19.33;;;10.48;;
19891;SDS011;10108;50.142;8.724;2023-02-21T07:09:39;19.48;;;11.40;;
19891;SDS011;10108;50.142;8.724;2023-02-21T07:12:05;22.17;;;11.40;;
19891;SDS011;10108;50.142;8.724;2023-02-21T07:14:33;21.13;;;11.60;;
19891;SDS011;10108;50.142;8.724;2023-02-21T07:16:59;23.60;;;11.70;;
19891;SDS011;10108;50.142;8.724;2023-02-21T07:19:26;19.00;;;11.15;;
19891;SDS011;10108;50.142;8.724;2023-02-21T07:21:52;20.83;;;11.75;;
19891;SDS011;10108;50.142;8.724;2023-02-21T07:24:18;20.20;;;11.68;;
19891;SDS011;10108;50.142;8.724;2023-02-21T07:26:44;23.45;;;12.15;;
19891;SDS011;10108;50.142;8.724;2023-02-21T07:29:10;21.00;;;12.30;;
19891;SDS011;10108;50.142;8.724;2023-02-21T07:31:37;22.90;;;11.55;;
19891;SDS011;10108;50.142;8.724;2023-02-21T07:34:03;26.70;;;12.85;;
19891;SDS011;10108;50.142;8.724;2023-02-21T07:36:29;19.23;;;11.35;;
19891;SDS011;10108;50.142;8.724;2023-02-21T07:38:56;20.25;;;11.80;;
19891;SDS011;10108;50.142;8.724;2023-02-21T07:41:22;22.77;;;11.50;;
19891;SDS011;10108;50.142;8.724;2023-02-21T07:43:48;22.85;;;11.57;;
19891;SDS011;10108;50.142;8.724;2023-02-21T07:46:15;21.75;;;11.77;;
19891;SDS011;10108;50.142;8.724;2023-02-21T07:48:42;20.30;;;11.55;;
19891;SDS011;10108;50.142;8.724;2023-02-21T07:51:09;24.25;;;12.02;;
19891;SDS011;10108;50.142;8.724;2023-02-21T07:53:35;21.30;;;11.93;;
19891;SDS011;10108;50.142;8.724;2023-02-21T07:56:02;26.90;;;12.18;;
19891;SDS011;10108;50.142;8.724;2023-02-21T07:58:29;24.55;;;12.00;;
19891;SDS011;10108;50.142;8.724;2023-02-21T08:00:56;21.35;;;11.38;;
19891;SDS011;10108;50.142;8.724;2023-02-21T08:03:23;21.02;;;11.18;;
19891;SDS011;10108;50.142;8.724;2023-02-21T08:05:49;22.73;;;11.63;;
19891;SDS011;10108;50.142;8.724;2023-02-21T08:08:15;22.80;;;11.85;;
19891;SDS011;10108;50.142;8.724;2023-02-21T08:10:41;24.63;;;12.05;;
19891;SDS011;10108;50.142;8.724;2023-02-21T08:13:08;24.23;;;12.52;;
19891;SDS011;10108;50.142;8.724;2023-02-21T08:15:34;22.85;;;12.05;;
19891;SDS011;10108;50.142;8.724;2023-02-21T08:18:00;21.60;;;12.60;;
19891;SDS011;10108;50.142;8.724;2023-02-21T08:20:26;23.55;;;12.40;;
19891;SDS011;10108;50.142;8.724;2023-02-21T08:22:52;20.25;;;11.90;;
19891;SDS011;10108;50.142;8.724;2023-02-21T08:25:18;25.48;;;12.88;;
19891;SDS011;10108;50.142;8.724;2023-02-21T08:27:44;24.85;;;12.35;;
19891;SDS011;10108;50.142;8.724;2023-02-21T08:30:13;25.50;;;12.68;;
19891;SDS011;10108;50.142;8.724;2023-02-21T08:32:41;20.67;;;12.43;;
19891;SDS011;10108;50.142;8.724;2023-02-21T08:35:09;22.55;;;12.13;;
19891;SDS011;10108;50.142;8.724;2023-02-21T08:37:43;27.95;;;12.93;;
19891;SDS011;10108;50.142;8.724;2023-02-21T08:40:13;23.20;;;13.05;;
19891;SDS011;10108;50.142;8.724;2023-02-21T08:42:40;21.38;;;12.23;;
19891;SDS011;10108;50.142;8.724;2023-02-21T08:45:06;23.60;;;12.70;;
19891;SDS011;10108;50.142;8.724;2023-02-21T08:47:39;21.90;;;12.95;;
19891;SDS011;10108;50.142;8.724;2023-02-21T08:50:05;23.88;;;12.65;;
19891;SDS011;10108;50.142;8.724;2023-02-21T08:52:31;23.25;;;13.15;;
19891;SDS011;10108;50.142;8.724;2023-02-21T08:54:57;23.08;;;13.40;;
19891;SDS011;10108;50.142;8.724;2023-02-21T08:57:23;26.38;;;12.65;;
19891;SDS011;10108;50.142;8.724;2023-02-21T08:59:50;24.13;;;13.25;;
19891;SDS011;10108;50.142;8.724;2023-02-21T09:02:17;23.80;;;13.25;;
19891;SDS011;10108;50.142;8.724;2023-02-21T09:04:45;23.33;;;12.75;;
19891;SDS011;10108;50.142;8.724;2023-02-21T09:07:12;25.83;;;13.15;;
19891;SDS011;10108;50.142;8.724;2023-02-21T09:09:42;24.58;;;13.85;;
19891;SDS011;10108;50.142;8.724;2023-02-21T09:12:09;23.52;;;13.73;;
19891;SDS011;10108;50.142;8.724;2023-02-21T09:14:36;22.45;;;13.05;;
19891;SDS011;10108;50.142;8.724;2023-02-21T09:17:04;29.58;;;13.70;;
19891;SDS011;10108;50.142;8.724;2023-02-21T09:19:31;24.98;;;13.73;;
19891;SDS011;10108;50.142;8.724;2023-02-21T09:21:58;25.05;;;14.73;;
19891;SDS011;10108;50.142;8.724;2023-02-21T09:24:25;24.40;;;13.65;;
19891;SDS011;10108;50.142;8.724;2023-02-21T09:26:56;23.02;;;14.25;;
19891;SDS011;10108;50.142;8.724;2023-02-21T09:29:29;25.10;;;11.93;;
19891;SDS011;10108;50.142;8.724;2023-02-21T09:31:57;21.92;;;12.65;;
19891;SDS011;10108;50.142;8.724;2023-02-21T09:34:23;23.02;;;12.63;;
19891;SDS011;10108;50.142;8.724;2023-02-21T09:36:49;23.15;;;13.75;;
19891;SDS011;10108;50.142;8.724;2023-02-21T09:39:16;25.58;;;13.05;;
19891;SDS011;10108;50.142;8.724;2023-02-21T09:41:43;22.17;;;12.98;;
19891;SDS011;10108;50.142;8.724;2023-02-21T09:44:11;26.30;;;13.63;;
19891;SDS011;10108;50.142;8.724;2023-02-21T09:46:45;23.90;;;12.98;;
19891;SDS011;10108;50.142;8.724;2023-02-21T09:51:54;23.58;;;12.77;;
19891;SDS011;10108;50.142;8.724;2023-02-21T09:54:36;24.15;;;13.05;;
19891;SDS011;10108;50.142;8.724;2023-02-21T09:57:08;25.05;;;12.88;;
19891;SDS011;10108;50.142;8.724;2023-02-21T09:59:37;20.63;;;12.98;;
19891;SDS011;10108;50.142;8.724;2023-02-21T10:07:36;23.92;;;13.45;;
19891;SDS011;10108;50.142;8.724;2023-02-21T10:10:17;23.98;;;13.40;;
19891;SDS011;10108;50.142;8.724;2023-02-21T10:20:44;25.90;;;12.80;;
19891;SDS011;10108;50.142;8.724;2023-02-21T10:23:18;25.08;;;13.45;;
19891;SDS011;10108;50.142;8.724;2023-02-21T10:25:50;22.05;;;12.77;;
19891;SDS011;10108;50.142;8.724;2023-02-21T10:28:24;25.52;;;13.45;;
19891;SDS011;10108;50.142;8.724;2023-02-21T10:30:51;22.95;;;12.98;;
19891;SDS011;10108;50.142;8.724;2023-02-21T10:33:21;23.23;;;12.48;;
19891;SDS011;10108;50.142;8.724;2023-02-21T10:35:47;21.02;;;12.35;;
19891;SDS011;10108;50.142;8.724;2023-02-21T10:38:18;22.45;;;12.05;;
19891;SDS011;10108;50.142;8.724;2023-02-21T10:40:57;22.50;;;12.32;;
19891;SDS011;10108;50.142;8.724;2023-02-21T10:43:30;23.23;;;12.95;;
19891;SDS011;10108;50.142;8.724;2023-02-21T10:45:58;28.02;;;13.68;;
19891;SDS011;10108;50.142;8.724;2023-02-21T10:48:31;19.70;;;12.15;;
19891;SDS011;10108;50.142;8.724;2023-02-21T10:53:43;21.52;;;13.10;;
19891;SDS011;10108;50.142;8.724;2023-02-21T11:01:18;24.10;;;12.18;;
19891;SDS011;10108;50.142;8.724;2023-02-21T11:03:54;20.63;;;11.88;;
19891;SDS011;10108;50.142;8.724;2023-02-21T11:06:30;21.70;;;11.55;;
19891;SDS011;10108;50.142;8.724;2023-02-21T11:08:57;20.65;;;11.70;;
19891;SDS011;10108;50.142;8.724;2023-02-21T11:11:58;19.98;;;11.45;;
19891;SDS011;10108;50.142;8.724;2023-02-21T11:14:25;23.33;;;11.13;;
19891;SDS011;10108;50.142;8.724;2023-02-21T11:17:03;20.95;;;11.18;;
19891;SDS011;10108;50.142;8.724;2023-02-21T11:22:13;19.23;;;11.60;;
19891;SDS011;10108;50.142;8.724;2023-02-21T11:27:13;25.30;;;12.70;;
19891;SDS011;10108;50.142;8.724;2023-02-21T11:29:41;23.42;;;13.00;;
19891;SDS011;10108;50.142;8.724;2023-02-21T11:32:10;22.05;;;12.65;;
19891;SDS011;10108;50.142;8.724;2023-02-21T11:34:44;23.52;;;11.90;;
19891;SDS011;10108;50.142;8.724;2023-02-21T11:37:13;22.90;;;12.38;;
19891;SDS011;10108;50.142;8.724;2023-02-21T11:39:40;21.35;;;12.40;;
19891;SDS011;10108;50.142;8.724;2023-02-21T11:42:31;23.48;;;12.57;;
19891;SDS011;10108;50.142;8.724;2023-02-21T11:45:32;18.60;;;10.93;;
19891;SDS011;10108;50.142;8.724;2023-02-21T11:48:01;16.48;;;10.43;;
19891;SDS011;10108;50.142;8.724;2023-02-21T11:50:32;22.60;;;10.68;;
19891;SDS011;10108;50.142;8.724;2023-02-21T11:53:14;18.75;;;10.88;;
19891;SDS011;10108;50.142;8.724;2023-02-21T11:59:02;24.15;;;11.60;;
19891;SDS011;10108;50.142;8.724;2023-02-21T12:01:54;17.48;;;10.80;;
19891;SDS011;10108;50.142;8.724;2023-02-21T12:04:46;20.13;;;12.07;;
19891;SDS011;10108;50.142;8.724;2023-02-21T12:10:43;22.88;;;12.20;;
19891;SDS011;10108;50.142;8.724;2023-02-21T12:14:12;18.33;;;11.45;;
19891;SDS011;10108;50.142;8.724;2023-02-21T12:19:38;21.23;;;11.90;;
19891;SDS011;10108;50.142;8.724;2023-02-21T12:30:36;18.13;;;10.88;;
19891;SDS011;10108;50.142;8.724;2023-02-21T12:33:42;18.00;;;10.77;;
19891;SDS011;10108;50.142;8.724;2023-02-21T12:36:12;15.35;;;10.55;;
19891;SDS011;10108;50.142;8.724;2023-02-21T12:44:33;21.08;;;12.88;;
19891;SDS011;10108;50.142;8.724;2023-02-21T12:47:18;21.70;;;12.80;;
19891;SDS011;10108;50.142;8.724;2023-02-21T12:50:12;21.63;;;12.25;;
19891;SDS011;10108;50.142;8.724;2023-02-21T12:53:03;22.98;;;12.07;;
19891;SDS011;10108;50.142;8.724;2023-02-21T12:55:43;17.25;;;11.15;;
19891;SDS011;10108;50.142;8.724;2023-02-21T12:58:23;23.63;;;12.10;;
19891;SDS011;10108;50.142;8.724;2023-02-21T13:01:01;21.75;;;12.40;;
19891;SDS011;10108;50.142;8.724;2023-02-21T13:06:31;19.88;;;11.82;;
19891;SDS011;10108;50.142;8.724;2023-02-21T13:11:56;20.13;;;10.50;;
19891;SDS011;10108;50.142;8.724;2023-02-21T13:17:15;19.58;;;10.65;;
19891;SDS011;10108;50.142;8.724;2023-02-21T13:28:19;21.40;;;9.60;;
19891;SDS011;10108;50.142;8.724;2023-02-21T13:30:51;16.75;;;9.63;;
19891;SDS011;10108;50.142;8.724;2023-02-21T13:35:51;17.08;;;10.10;;
19891;SDS011;10108;50.142;8.724;2023-02-21T13:38:18;16.75;;;9.05;;
19891;SDS011;10108;50.142;8.724;2023-02-21T13:40:50;15.27;;;9.65;;
19891;SDS011;10108;50.142;8.724;2023-02-21T13:45:47;15.02;;;8.75;;
19891;SDS011;10108;50.142;8.724;2023-02-21T13:48:18;19.23;;;9.88;;
19891;SDS011;10108;50.142;8.724;2023-02-21T13:50:50;18.17;;;9.55;;
19891;SDS011;10108;50.142;8.724;2023-02-21T13:53:25;18.60;;;9.85;;
19891;SDS011;10108;50.142;8.724;2023-02-21T13:58:36;19.10;;;10.25;;
19891;SDS011;10108;50.142;8.724;2023-02-21T14:03:37;21.67;;;10.45;;
19891;SDS011;10108;50.142;8.724;2023-02-21T14:08:43;17.23;;;11.10;;
19891;SDS011;10108;50.142;8.724;2023-02-21T14:11:20;20.13;;;10.40;;
19891;SDS011;10108;50.142;8.724;2023-02-21T14:14:01;15.98;;;10.57;;
19891;SDS011;10108;50.142;8.724;2023-02-21T14:16:57;19.00;;;10.32;;
19891;SDS011;10108;50.142;8.724;2023-02-21T14:19:35;17.77;;;10.38;;
19891;SDS011;10108;50.142;8.724;2023-02-21T14:22:12;13.90;;;9.10;;
19891;SDS011;10108;50.142;8.724;2023-02-21T14:25:03;18.73;;;10.30;;
19891;SDS011;10108;50.142;8.724;2023-02-21T14:27:34;17.38;;;9.80;;
19891;SDS011;10108;50.142;8.724;2023-02-21T14:32:46;17.83;;;10.50;;
19891;SDS011;10108;50.142;8.724;2023-02-21T14:37:42;15.18;;;9.52;;
19891;SDS011;10108;50.142;8.724;2023-02-21T14:43:10;15.18;;;9.38;;
19891;SDS011;10108;50.142;8.724;2023-02-21T14:48:37;14.07;;;8.50;;
19891;SDS011;10108;50.142;8.724;2023-02-21T14:51:40;12.02;;;8.25;;
19891;SDS011;10108;50.142;8.724;2023-02-21T15:05:26;13.80;;;8.55;;
19891;SDS011;10108;50.142;8.724;2023-02-21T15:08:18;13.07;;;8.18;;
19891;SDS011;10108;50.142;8.724;2023-02-21T15:10:48;13.77;;;9.02;;
19891;SDS011;10108;50.142;8.724;2023-02-21T15:15:57;13.88;;;8.25;;
19891;SDS011;10108;50.142;8.724;2023-02-21T15:18:31;11.50;;;7.80;;
19891;SDS011;10108;50.142;8.724;2023-02-21T15:21:01;11.90;;;7.57;;
19891;SDS011;10108;50.142;8.724;2023-02-21T15:23:30;14.93;;;8.80;;
19891;SDS011;10108;50.142;8.724;2023-02-21T15:25:58;12.55;;;7.88;;
19891;SDS011;10108;50.142;8.724;2023-02-21T15:31:04;14.35;;;8.45;;
19891;SDS011;10108;50.142;8.724;2023-02-21T15:33:33;13.68;;;8.48;;
19891;SDS011;10108;50.142;8.724;2023-02-21T15:36:17;11.73;;;7.70;;
19891;SDS011;10108;50.142;8.724;2023-02-21T15:39:05;15.25;;;9.23;;
19891;SDS011;10108;50.142;8.724;2023-02-21T15:41:49;14.35;;;8.65;;
19891;SDS011;10108;50.142;8.724;2023-02-21T15:44:19;15.15;;;8.90;;
19891;SDS011;10108;50.142;8.724;2023-02-21T15:46:55;16.17;;;9.40;;
19891;SDS011;10108;50.142;8.724;2023-02-21T15:49:29;16.00;;;9.18;;
19891;SDS011;10108;50.142;8.724;2023-02-21T15:52:00;15.98;;;9.82;;
19891;SDS011;10108;50.142;8.724;2023-02-21T15:54:29;16.33;;;9.50;;
19891;SDS011;10108;50.142;8.724;2023-02-21T15:59:36;15.65;;;9.23;;
19891;SDS011;10108;50.142;8.724;2023-02-21T16:02:17;17.27;;;9.98;;
19891;SDS011;10108;50.142;8.724;2023-02-21T16:04:48;14.32;;;9.20;;
19891;SDS011;10108;50.142;8.724;2023-02-21T16:07:29;16.40;;;9.13;;
19891;SDS011;10108;50.142;8.724;2023-02-21T16:10:05;17.98;;;10.13;;
19891;SDS011;10108;50.142;8.724;2023-02-21T16:12:37;17.02;;;9.75;;
19891;SDS011;10108;50.142;8.724;2023-02-21T16:17:43;15.60;;;9.75;;
19891;SDS011;10108;50.142;8.724;2023-02-21T16:22:39;19.13;;;9.82;;
19891;SDS011;10108;50.142;8.724;2023-02-21T16:27:35;17.52;;;9.80;;
19891;SDS011;10108;50.142;8.724;2023-02-21T16:30:06;17.88;;;9.35;;
19891;SDS011;10108;50.142;8.724;2023-02-21T16:32:37;17.92;;;8.73;;
19891;SDS011;10108;50.142;8.724;2023-02-21T16:35:04;17.92;;;9.43;;
19891;SDS011;10108;50.142;8.724;2023-02-21T16:37:30;17.30;;;9.45;;
19891;SDS011;10108;50.142;8.724;2023-02-21T16:39:56;16.08;;;8.80;;
19891;SDS011;10108;50.142;8.724;2023-02-21T16:42:23;15.57;;;8.48;;
19891;SDS011;10108;50.142;8.724;2023-02-21T16:44:49;16.25;;;9.43;;
19891;SDS011;10108;50.142;8.724;2023-02-21T16:47:16;20.23;;;9.63;;
19891;SDS011;10108;50.142;8.724;2023-02-21T16:49:44;21.38;;;11.68;;
19891;SDS011;10108;50.142;8.724;2023-02-21T16:52:14;17.55;;;10.70;;
19891;SDS011;10108;50.142;8.724;2023-02-21T16:54:41;22.33;;;11.18;;
19891;SDS011;10108;50.142;8.724;2023-02-21T16:57:07;19.35;;;11.45;;
19891;SDS011;10108;50.142;8.724;2023-02-21T16:59:34;20.95;;;11.23;;
19891;SDS011;10108;50.142;8.724;2023-02-21T17:02:01;19.35;;;10.80;;
19891;SDS011;10108;50.142;8.724;2023-02-21T17:04:29;20.38;;;10.77;;
19891;SDS011;10108;50.142;8.724;2023-02-21T17:06:56;20.67;;;11.80;;
19891;SDS011;10108;50.142;8.724;2023-02-21T17:09:28;21.88;;;12.02;;
19891;SDS011;10108;50.142;8.724;2023-02-21T17:11:58;17.63;;;10.55;;
19891;SDS011;10108;50.142;8.724;2023-02-21T17:14:25;16.08;;;10.35;;
19891;SDS011;10108;50.142;8.724;2023-02-21T17:16:51;17.83;;;11.05;;
19891;SDS011;10108;50.142;8.724;2023-02-21T17:19:18;21.10;;;10.20;;
19891;SDS011;10108;50.142;8.724;2023-02-21T17:21:49;17.00;;;9.40;;
19891;SDS011;10108;50.142;8.724;2023-02-21T17:24:16;16.38;;;9.98;;
19891;SDS011;10108;50.142;8.724;2023-02-21T17:26:43;20.00;;;10.00;;
19891;SDS011;10108;50.142;8.724;2023-02-21T17:29:09;17.20;;;9.77;;
19891;SDS011;10108;50.142;8.724;2023-02-21T17:31:36;17.00;;;9.82;;